Terminal Aerodrome Forecast
Issued by NWS Mt. Holly, NJ

Home | Current Version | Previous Version | Text Only | Print | Product List | Glossary On
Versions: 1 2 3 4 5 6 7 8 9 10 11 12 13 14 15 16 17 18 19 20 21 22 23 24 25 26 27 28 29 30 31 32 33 34 35 36 37 38 39 40 41 42 43 44 45 46 47
577
FTUS41 KPHI 050550
TAFABE
TAF
KABE 050550Z 0506/0606 14007KT P6SM OVC060
     FM050700 13006KT 5SM -SN SCT015 OVC025
      TEMPO 0508/0511 3SM -RASN BKN015
     FM051100 VRB03KT 5SM BR BKN008 OVC015
     FM051500 28008KT P6SM SCT030 OVC050
     FM052000 29006KT P6SM FEW050=

USA.gov is the U.S. government's official web portal to all federal, state and local government web resources and services.